Time;durP1;ratioP1;P1;durP2;ratioP2;P2;SDS_P1;SDS_P2;PMS_P1;PMS_P2;Temp;Humidity;BMP_temperature;BMP_pressure;BME280_temperature;BME280_humidity;BME280_pressure;Samples;Min_cycle;Max_cycle;Signal;HPM_P1;HPM_P2
2024/03/09 00:00:16;;;;;;;7.88;4.90;;;;;;;2.53;100.00;91985.22;4759352;30;20519;-82
2024/03/09 00:02:50;;;;;;;8.13;5.38;;;;;;;2.48;100.00;91978.22;4760342;30;20047;-83
2024/03/09 00:05:17;;;;;;;8.00;4.50;;;;;;;2.47;100.00;91978.47;4773621;30;20043;-82
2024/03/09 00:07:43;;;;;;;8.38;4.95;;;;;;;2.42;100.00;91981.78;4768783;30;20040;-83
2024/03/09 00:10:11;;;;;;;7.05;4.40;;;;;;;2.41;100.00;91975.06;4756556;30;20075;-83
2024/03/09 00:12:38;;;;;;;6.45;4.10;;;;;;;2.35;100.00;91967.53;4757000;30;20036;-82
2024/03/09 00:15:05;;;;;;;7.32;4.50;;;;;;;2.37;100.00;91968.06;4755579;30;20036;-83
2024/03/09 00:17:31;;;;;;;6.40;3.63;;;;;;;2.37;100.00;91973.25;4769967;30;20043;-82
2024/03/09 00:20:00;;;;;;;6.68;4.10;;;;;;;2.35;100.00;91986.41;4766923;30;20044;-83
2024/03/09 00:22:27;;;;;;;6.43;4.15;;;;;;;2.34;100.00;91978.88;4757729;30;20062;-83
2024/03/09 00:24:53;;;;;;;6.78;3.95;;;;;;;2.34;100.00;91982.25;4761038;30;20565;-83
2024/03/09 00:27:24;;;;;;;6.85;4.15;;;;;;;2.29;100.00;91980.41;4768017;30;20067;-82
2024/03/09 00:29:54;;;;;;;7.13;4.10;;;;;;;2.24;100.00;91975.19;4757376;30;20473;-83
2024/03/09 00:32:25;;;;;;;6.82;4.07;;;;;;;2.19;100.00;91969.25;4770825;30;20043;-83
2024/03/09 00:34:51;;;;;;;5.85;3.80;;;;;;;2.19;100.00;91980.34;4774313;30;20569;-83
2024/03/09 00:37:17;;;;;;;7.38;3.95;;;;;;;2.21;100.00;91978.28;4771875;30;20031;-83
2024/03/09 00:39:42;;;;;;;6.43;3.80;;;;;;;2.12;100.00;91968.66;4761014;30;20048;-83
2024/03/09 00:42:14;;;;;;;6.45;3.80;;;;;;;2.17;100.00;91976.44;4754593;30;20107;-83
2024/03/09 00:44:42;;;;;;;6.32;4.10;;;;;;;2.12;100.00;91977.19;4764136;30;20036;-83
2024/03/09 00:47:08;;;;;;;6.47;3.95;;;;;;;2.05;100.00;91968.88;4771088;30;20643;-83
2024/03/09 00:49:36;;;;;;;6.25;3.80;;;;;;;2.07;100.00;91972.78;4758213;30;20040;-82
2024/03/09 00:52:05;;;;;;;7.05;4.28;;;;;;;2.03;100.00;91968.34;4763792;30;20105;-83
2024/03/09 00:54:31;;;;;;;7.43;4.00;;;;;;;2.01;100.00;91966.00;4756385;30;20131;-83
2024/03/09 00:56:56;;;;;;;6.22;3.75;;;;;;;1.99;100.00;91964.69;4766440;30;20583;-83
2024/03/09 00:59:22;;;;;;;6.68;4.10;;;;;;;1.97;100.00;91959.00;4759673;30;20071;-83
2024/03/09 01:01:48;;;;;;;6.45;4.00;;;;;;;1.92;100.00;91951.97;4761974;30;20088;-83
2024/03/09 01:04:17;;;;;;;6.60;3.90;;;;;;;1.91;100.00;91957.38;4764582;30;20144;-83
2024/03/09 01:06:43;;;;;;;6.60;4.03;;;;;;;1.92;100.00;91962.31;4758002;30;20040;-83
2024/03/09 01:09:13;;;;;;;6.75;4.15;;;;;;;1.83;100.00;91933.59;4763253;30;20090;-82
2024/03/09 01:11:40;;;;;;;6.30;3.90;;;;;;;1.88;100.00;91932.84;4757554;30;20139;-83
2024/03/09 01:14:06;;;;;;;6.63;3.90;;;;;;;1.87;100.00;91921.75;4764038;30;20451;-83
2024/03/09 01:16:32;;;;;;;5.97;3.40;;;;;;;1.83;100.00;91918.09;4759739;30;20031;-83
2024/03/09 01:18:58;;;;;;;4.90;2.83;;;;;;;1.87;100.00;91918.41;4755536;30;20047;-83
2024/03/09 01:21:24;;;;;;;4.85;2.80;;;;;;;1.88;100.00;91927.69;4760885;30;20147;-82
2024/03/09 01:23:50;;;;;;;5.55;3.72;;;;;;;1.85;100.00;91928.97;4765214;30;20071;-83
2024/03/09 01:26:15;;;;;;;5.68;3.60;;;;;;;1.86;100.00;91930.50;4765792;30;20086;-83
2024/03/09 01:28:41;;;;;;;5.07;3.05;;;;;;;1.84;100.00;91932.53;4769051;30;20409;-83
2024/03/09 01:31:12;;;;;;;6.38;3.58;;;;;;;1.83;100.00;91923.25;4759595;30;20055;-82
2024/03/09 01:33:38;;;;;;;5.20;3.00;;;;;;;1.78;100.00;91912.09;4767373;30;20373;-83
2024/03/09 01:36:04;;;;;;;4.70;3.15;;;;;;;1.78;100.00;91917.25;4743813;30;20052;-82
2024/03/09 01:38:29;;;;;;;4.90;3.10;;;;;;;1.77;100.00;91921.66;4769801;30;20055;-83
2024/03/09 01:40:55;;;;;;;5.57;2.85;;;;;;;1.80;100.00;91916.03;4761829;30;20054;-83
2024/03/09 01:43:21;;;;;;;5.78;3.20;;;;;;;1.82;100.00;91916.56;4763759;30;20043;-82
2024/03/09 01:45:47;;;;;;;5.35;2.95;;;;;;;1.80;100.00;91908.28;4760263;30;20256;-83
2024/03/09 01:48:14;;;;;;;4.47;2.70;;;;;;;1.77;100.00;91906.16;4770680;30;20067;-83
2024/03/09 01:50:40;;;;;;;4.63;2.80;;;;;;;1.77;100.00;91901.00;4763396;30;20466;-82
2024/03/09 01:53:07;;;;;;;4.30;2.53;;;;;;;1.83;100.00;91907.78;4763552;30;20060;-82
2024/03/09 01:55:35;;;;;;;3.90;2.38;;;;;;;1.82;100.00;91901.06;4769376;30;20537;-82
2024/03/09 01:58:03;;;;;;;3.95;2.35;;;;;;;1.83;100.00;91896.69;4757174;30;20084;-83
2024/03/09 02:00:37;;;;;;;4.32;2.28;;;;;;;1.78;100.00;91884.50;4756703;30;20044;-83
2024/03/09 02:03:08;;;;;;;3.60;2.20;;;;;;;1.77;100.00;91875.19;4754712;30;20066;-82
2024/03/09 02:05:37;;;;;;;3.30;1.90;;;;;;;1.82;100.00;91882.19;4761120;30;20063;-82
2024/03/09 02:08:05;;;;;;;3.63;2.10;;;;;;;1.79;100.00;91886.06;4758261;30;20102;-83
2024/03/09 02:10:32;;;;;;;3.67;2.20;;;;;;;1.78;100.00;91889.69;4764202;30;20070;-82
2024/03/09 02:12:58;;;;;;;3.92;2.15;;;;;;;1.71;100.00;91863.28;4773113;30;20040;-82
2024/03/09 02:15:29;;;;;;;4.50;2.47;;;;;;;1.79;100.00;91875.75;4760398;30;20059;-82
2024/03/09 02:17:58;;;;;;;5.75;3.10;;;;;;;1.81;100.00;91876.28;4755853;30;20661;-82
2024/03/09 02:20:30;;;;;;;9.73;3.53;;;;;;;1.80;100.00;91864.41;4762848;30;20109;-82
2024/03/09 02:22:58;;;;;;;4.70;3.10;;;;;;;1.80;100.00;91864.41;4765015;30;20060;-82
2024/03/09 02:25:27;;;;;;;4.00;2.45;;;;;;;1.81;100.00;91865.94;4765152;30;20046;-82
2024/03/09 02:27:52;;;;;;;4.22;2.60;;;;;;;1.80;100.00;91859.25;4767020;30;20520;-83
2024/03/09 02:30:21;;;;;;;5.13;2.65;;;;;;;1.79;100.00;91857.66;4764041;30;20084;-82
2024/03/09 02:32:50;;;;;;;5.18;2.70;;;;;;;1.86;100.00;91858.22;4757137;30;20066;-83
2024/03/09 02:35:17;;;;;;;5.22;2.75;;;;;;;1.82;100.00;91856.41;4763678;30;20051;-82
2024/03/09 02:37:43;;;;;;;4.88;2.70;;;;;;;1.80;100.00;91854.09;4764061;30;20055;-82
2024/03/09 02:40:12;;;;;;;4.57;2.63;;;;;;;1.79;100.00;91849.16;4761944;30;20048;-82
2024/03/09 02:42:39;;;;;;;5.63;2.83;;;;;;;1.77;100.00;91843.47;4757106;30;20032;-83
2024/03/09 02:45:07;;;;;;;6.38;3.00;;;;;;;1.81;100.00;91850.47;4757811;30;20050;-83
2024/03/09 02:47:32;;;;;;;6.93;3.38;;;;;;;1.85;100.00;91843.78;4755841;30;20106;-83
2024/03/09 02:49:58;;;;;;;6.22;3.20;;;;;;;1.84;100.00;91844.78;4756467;30;20076;-83
2024/03/09 02:52:24;;;;;;;5.97;3.53;;;;;;;1.87;100.00;91844.31;4760144;30;20072;-83
2024/03/09 02:54:50;;;;;;;4.85;2.88;;;;;;;1.91;100.00;91841.22;4760227;30;20052;-84
2024/03/09 02:57:16;;;;;;;5.05;2.83;;;;;;;1.84;100.00;91837.06;4764335;30;20047;-83
2024/03/09 02:59:43;;;;;;;4.93;2.80;;;;;;;1.72;100.00;91836.47;4755908;30;20182;-83
2024/03/09 03:03:45;;;;;;;6.85;3.10;;;;;;;1.74;100.00;91834.41;4762410;30;20043;-83
2024/03/09 03:05:01;;;;;;;6.00;2.93;;;;;;;1.74;100.00;91834.41;4761240;30;20048;-82
2024/03/09 03:07:27;;;;;;;5.28;3.03;;;;;;;1.76;100.00;91839.34;4766327;30;20055;-83
2024/03/09 03:09:57;;;;;;;4.88;2.92;;;;;;;1.78;100.00;91838.06;4761198;30;20048;-83
2024/03/09 03:12:22;;;;;;;5.03;2.75;;;;;;;1.84;100.00;91833.69;4758942;30;20044;-83
2024/03/09 03:14:50;;;;;;;5.47;2.55;;;;;;;1.80;100.00;91833.44;4764127;30;20059;-83
2024/03/09 03:17:15;;;;;;;3.63;2.10;;;;;;;1.76;100.00;91827.22;4772537;30;20044;-83
2024/03/09 03:19:42;;;;;;;4.20;2.50;;;;;;;1.79;100.00;91831.09;4766641;30;20044;-83
2024/03/09 03:22:08;;;;;;;4.47;2.50;;;;;;;1.74;100.00;91828.50;4775574;30;20408;-83
2024/03/09 03:24:33;;;;;;;3.83;2.38;;;;;;;1.77;100.00;91830.56;4767686;30;20047;-83
2024/03/09 03:26:59;;;;;;;4.45;2.75;;;;;;;1.77;100.00;91839.06;4775465;30;20146;-83
2024/03/09 03:29:27;;;;;;;5.22;3.05;;;;;;;1.85;100.00;91840.44;4757761;30;20078;-83
2024/03/09 03:31:56;;;;;;;5.95;3.13;;;;;;;1.87;100.00;91841.75;4763090;30;20097;-83
2024/03/09 03:34:22;;;;;;;22.85;3.80;;;;;;;2.04;100.00;91853.72;4765707;30;20044;-82
2024/03/09 03:36:48;;;;;;;7.35;3.15;;;;;;;1.85;100.00;91838.63;4764630;30;20069;-83
2024/03/09 03:39:13;;;;;;;4.88;2.67;;;;;;;1.99;100.00;91845.94;4765206;30;20039;-82
2024/03/09 03:41:39;;;;;;;4.15;2.70;;;;;;;1.87;100.00;91838.38;4771853;30;20052;-82
2024/03/09 03:44:05;;;;;;;4.63;2.70;;;;;;;1.83;100.00;91843.25;4762770;30;20070;-82
2024/03/09 03:46:31;;;;;;;25.98;3.30;;;;;;;1.80;100.00;91838.59;4760795;30;20039;-82
2024/03/09 03:48:57;;;;;;;8.45;3.00;;;;;;;1.82;100.00;91846.06;4772076;30;20032;-83
2024/03/09 03:51:22;;;;;;;4.38;2.70;;;;;;;1.76;100.00;91845.28;4775685;30;20071;-84
2024/03/09 03:53:48;;;;;;;4.45;2.70;;;;;;;1.72;100.00;91838.28;4761615;30;20060;-83
2024/03/09 03:56:14;;;;;;;3.53;2.30;;;;;;;1.74;100.00;91849.13;4758004;30;20076;-83
2024/03/09 03:58:41;;;;;;;3.92;2.47;;;;;;;1.72;100.00;91846.78;4762706;30;20040;-83
2024/03/09 04:01:07;;;;;;;3.92;2.45;;;;;;;1.70;100.00;91843.69;4761558;30;20397;-83
2024/03/09 04:03:32;;;;;;;4.07;2.38;;;;;;;1.72;100.00;91844.22;4760936;30;20048;-83
2024/03/09 04:06:02;;;;;;;4.72;2.55;;;;;;;1.73;100.00;91847.56;4761670;30;20645;-83
2024/03/09 04:08:28;;;;;;;4.00;2.35;;;;;;;1.72;100.00;91857.09;4762866;30;20044;-83
2024/03/09 04:10:54;;;;;;;3.75;2.08;;;;;;;1.72;100.00;91851.94;4761868;30;20067;-82
2024/03/09 04:13:21;;;;;;;3.63;2.13;;;;;;;1.76;100.00;91852.25;4766262;30;20052;-83
2024/03/09 04:15:47;;;;;;;3.25;2.08;;;;;;;1.78;100.00;91847.59;4769784;30;20111;-82
2024/03/09 04:18:13;;;;;;;3.45;2.10;;;;;;;1.79;100.00;91844.78;4758712;30;20074;-82
2024/03/09 04:20:40;;;;;;;3.63;2.10;;;;;;;1.78;100.00;91853.53;4773177;30;20048;-82
2024/03/09 04:23:07;;;;;;;4.05;2.10;;;;;;;1.79;100.00;91846.56;4773064;30;20047;-83
2024/03/09 04:25:35;;;;;;;2.95;1.73;;;;;;;1.75;100.00;91841.13;4764679;30;20395;-83
2024/03/09 04:28:05;;;;;;;3.35;2.08;;;;;;;1.78;100.00;91835.47;4758529;30;20510;-84
2024/03/09 04:30:33;;;;;;;2.80;1.70;;;;;;;1.82;100.00;91836.56;4759514;30;20069;-82
2024/03/09 04:33:04;;;;;;;3.08;1.90;;;;;;;1.81;100.00;91834.97;4758421;30;20074;-83
2024/03/09 04:35:31;;;;;;;2.55;1.67;;;;;;;1.81;100.00;91826.47;4759880;30;20067;-84
2024/03/09 04:37:57;;;;;;;3.55;2.20;;;;;;;1.80;100.00;91828.28;4762464;30;20047;-83
2024/03/09 04:40:23;;;;;;;39.63;3.40;;;;;;;1.85;100.00;91833.47;4764650;30;20047;-83
2024/03/09 04:42:49;;;;;;;350.85;8.02;;;;;;;1.84;100.00;91829.31;4761561;30;20414;-82
2024/03/09 04:45:22;;;;;;;32.33;3.58;;;;;;;1.84;100.00;91834.47;4766912;30;20051;-83
2024/03/09 04:47:48;;;;;;;44.60;3.80;;;;;;;1.84;100.00;91826.72;4768504;30;20048;-83
2024/03/09 04:50:21;;;;;;;53.78;3.67;;;;;;;1.96;100.00;91825.75;4774291;30;20035;-83
2024/03/09 04:52:47;;;;;;;85.82;4.65;;;;;;;1.95;100.00;91825.00;4763610;30;20066;-83
2024/03/09 04:55:17;;;;;;;14.55;3.60;;;;;;;1.86;100.00;91816.94;4764755;30;20576;-83
2024/03/09 04:57:43;;;;;;;10.95;2.90;;;;;;;1.85;100.00;91825.72;4759880;30;20032;-83
2024/03/09 05:00:15;;;;;;;3.55;1.92;;;;;;;1.81;100.00;91818.72;4761539;30;20047;-83
2024/03/09 05:02:45;;;;;;;4.93;1.98;;;;;;;1.82;100.00;91823.66;4766247;30;20096;-83
2024/03/09 05:05:11;;;;;;;3.05;1.80;;;;;;;1.78;100.00;91817.41;4765988;30;20048;-83
2024/03/09 05:07:37;;;;;;;2.72;1.67;;;;;;;1.79;100.00;91820.78;4765002;30;20095;-84
2024/03/09 05:10:05;;;;;;;2.83;1.88;;;;;;;1.79;100.00;91818.97;4743876;30;20058;-83
2024/03/09 05:12:31;;;;;;;4.43;1.90;;;;;;;1.79;100.00;91821.53;4755590;30;20056;-83
2024/03/09 05:14:58;;;;;;;5.05;1.83;;;;;;;1.80;100.00;91823.13;4769675;30;20059;-83
2024/03/09 05:17:24;;;;;;;3.03;1.80;;;;;;;1.82;100.00;91818.47;4754692;30;20773;-83
2024/03/09 05:19:50;;;;;;;2.90;1.67;;;;;;;1.81;100.00;91822.06;4756801;30;20036;-83
2024/03/09 05:22:15;;;;;;;3.10;1.73;;;;;;;1.81;100.00;91822.06;4769268;30;20047;-83
2024/03/09 05:24:41;;;;;;;48.45;2.90;;;;;;;1.82;100.00;91826.22;4770880;30;20040;-83
2024/03/09 05:27:07;;;;;;;222.90;5.22;;;;;;;1.82;100.00;91826.22;4761734;30;20043;-83
2024/03/09 05:29:33;;;;;;;4.78;2.40;;;;;;;1.81;100.00;91819.50;4764197;30;20076;-83
2024/03/09 05:31:59;;;;;;;2.80;1.80;;;;;;;1.80;100.00;91812.78;4768535;30;20040;-83
2024/03/09 05:34:24;;;;;;;2.53;1.70;;;;;;;1.85;100.00;91815.41;4763224;30;20044;-83
2024/03/09 05:36:51;;;;;;;2.88;1.88;;;;;;;1.82;100.00;91813.31;4761489;30;20040;-83
2024/03/09 05:39:17;;;;;;;50.22;3.20;;;;;;;1.85;100.00;91815.41;4770358;30;20481;-83
2024/03/09 05:41:43;;;;;;;166.63;5.35;;;;;;;1.87;100.00;91803.03;4767915;30;20102;-83
2024/03/09 05:44:09;;;;;;;41.63;2.67;;;;;;;1.92;100.00;91809.25;4766587;30;20044;-83
2024/03/09 05:46:35;;;;;;;29.85;2.72;;;;;;;1.96;100.00;91805.91;4763367;30;20521;-83
2024/03/09 05:49:00;;;;;;;30.73;3.20;;;;;;;1.99;100.00;91809.78;4764825;30;20048;-82
2024/03/09 05:51:26;;;;;;;132.68;4.47;;;;;;;1.95;100.00;91814.66;4762712;30;20072;-83
2024/03/09 05:53:51;;;;;;;217.43;4.90;;;;;;;1.90;100.00;91816.47;4761864;30;20051;-83
2024/03/09 05:56:17;;;;;;;350.98;17.63;;;;;;;1.83;100.00;91820.03;4761376;30;20071;-83
2024/03/09 05:58:42;;;;;;;100.60;4.22;;;;;;;1.88;100.00;91812.31;4762638;30;20549;-83
2024/03/09 06:01:08;;;;;;;352.02;7.32;;;;;;;1.84;100.00;91813.81;4762264;30;20058;-83
2024/03/09 06:03:36;;;;;;;449.00;8.85;;;;;;;1.84;100.00;91813.81;4760125;30;20051;-83
2024/03/09 06:06:01;;;;;;;104.10;3.63;;;;;;;1.78;100.00;91809.69;4766421;30;20103;-82
2024/03/09 06:08:27;;;;;;;231.27;5.25;;;;;;;1.85;100.00;91814.63;4763216;30;20127;-82
2024/03/09 06:10:53;;;;;;;263.95;5.90;;;;;;;1.82;100.00;91821.06;4770562;30;20058;-82
2024/03/09 06:13:20;;;;;;;410.38;8.88;;;;;;;1.86;100.00;91816.94;4773070;30;20044;-83
2024/03/09 06:15:47;;;;;;;429.75;9.30;;;;;;;1.88;100.00;91824.44;4767334;30;20094;-83
2024/03/09 06:18:16;;;;;;;300.35;7.10;;;;;;;1.80;100.00;91817.94;4755306;30;20031;-83
2024/03/09 06:20:48;;;;;;;126.50;4.63;;;;;;;1.81;100.00;91821.31;4755893;30;20067;-83
2024/03/09 06:23:14;;;;;;;229.38;5.90;;;;;;;1.82;100.00;91815.91;4755179;30;20520;-82
2024/03/09 06:25:40;;;;;;;207.32;5.88;;;;;;;1.82;100.00;91809.94;4760119;30;20062;-81
2024/03/09 06:28:12;;;;;;;423.50;8.95;;;;;;;1.82;100.00;91815.09;4748794;30;20044;-81
2024/03/09 06:30:39;;;;;;;333.65;7.15;;;;;;;1.80;100.00;91805.06;4752082;30;20066;-82
2024/03/09 06:33:05;;;;;;;50.95;4.03;;;;;;;1.85;100.00;91810.22;4756663;30;20040;-81
2024/03/09 06:35:31;;;;;;;91.75;4.55;;;;;;;1.78;100.00;91793.41;4752690;30;20028;-82
2024/03/09 06:38:00;;;;;;;39.97;3.92;;;;;;;1.91;100.00;91813.59;4754466;30;20121;-82
2024/03/09 06:40:27;;;;;;;11.75;3.17;;;;;;;1.97;100.00;91804.09;4757306;30;20053;-83
2024/03/09 06:42:59;;;;;;;4.93;3.22;;;;;;;1.98;100.00;91814.19;4762225;30;20044;-81
2024/03/09 06:45:26;;;;;;;6.22;3.05;;;;;;;2.01;100.00;91820.66;4759068;30;20134;-82
2024/03/09 06:47:52;;;;;;;4.32;2.38;;;;;;;2.00;100.00;91816.50;4765969;30;20043;-81
2024/03/09 06:50:18;;;;;;;32.05;3.15;;;;;;;1.98;100.00;91818.56;4754039;30;20043;-81
2024/03/09 06:52:44;;;;;;;107.10;4.30;;;;;;;1.96;100.00;91811.06;4765593;30;20032;-81
2024/03/09 06:55:10;;;;;;;59.08;4.10;;;;;;;2.02;100.00;91820.38;4759837;30;20069;-82
2024/03/09 06:57:36;;;;;;;51.00;3.30;;;;;;;2.05;100.00;91822.50;4763154;30;20036;-82
2024/03/09 07:00:12;;;;;;;4.70;2.70;;;;;;;2.06;100.00;91820.69;4757231;30;20572;-83
2024/03/09 07:02:38;;;;;;;3.92;2.20;;;;;;;2.13;100.00;91823.03;4762411;30;20058;-82
2024/03/09 07:05:04;;;;;;;235.20;5.63;;;;;;;2.13;100.00;91833.38;4759158;30;20036;-81
2024/03/09 07:07:30;;;;;;;334.83;8.13;;;;;;;2.03;100.00;91823.75;4760536;30;20081;-80
2024/03/09 07:09:56;;;;;;;101.80;4.75;;;;;;;1.99;100.00;91836.38;4754495;30;20063;-81
2024/03/09 07:12:22;;;;;;;65.45;3.55;;;;;;;2.01;100.00;91826.59;4758211;30;20584;-82
2024/03/09 07:14:48;;;;;;;8.23;2.58;;;;;;;2.06;100.00;91828.41;4760447;30;20071;-82
2024/03/09 07:17:17;;;;;;;3.10;1.80;;;;;;;2.12;100.00;91827.44;4767180;30;20043;-82
2024/03/09 07:19:45;;;;;;;1.83;1.30;;;;;;;2.19;100.00;91824.63;4763511;30;20191;-81
2024/03/09 07:22:13;;;;;;;2.53;1.50;;;;;;;2.27;100.00;91824.13;4754555;30;20142;-81
2024/03/09 07:24:42;;;;;;;1.92;1.25;;;;;;;2.26;100.00;91810.44;4762646;30;20710;-82
2024/03/09 07:27:08;;;;;;;1.67;1.10;;;;;;;2.37;100.00;91826.00;4758717;30;20050;-82
2024/03/09 07:29:35;;;;;;;2.35;1.38;;;;;;;2.40;100.00;91828.84;4762794;30;20085;-81
2024/03/09 07:32:02;;;;;;;2.03;1.30;;;;;;;2.45;100.00;91833.25;4757988;30;20040;-83
2024/03/09 07:34:28;;;;;;;2.15;1.48;;;;;;;2.44;100.00;91823.97;4758551;30;20067;-82
2024/03/09 07:36:55;;;;;;;4.15;1.60;;;;;;;2.50;100.00;91828.91;4757631;30;20071;-81
2024/03/09 07:39:23;;;;;;;2.80;1.50;;;;;;;2.53;100.00;91835.38;4761491;30;20829;-82
2024/03/09 07:41:49;;;;;;;301.10;7.50;;;;;;;2.46;100.00;91830.44;4757306;30;20077;-81
2024/03/09 07:44:14;;;;;;;203.80;6.88;;;;;;;2.50;100.00;91841.06;4757505;30;20035;-80
2024/03/09 07:46:40;;;;;;;10.38;2.45;;;;;;;2.44;100.00;91842.03;4753432;30;20032;-81
2024/03/09 07:49:07;;;;;;;50.80;3.40;;;;;;;2.42;100.00;91844.88;4757764;30;20566;-82
2024/03/09 07:51:35;;;;;;;19.52;2.42;;;;;;;2.34;100.00;91842.75;4748092;29;20056;-83
2024/03/09 07:54:01;;;;;;;63.78;3.65;;;;;;;2.27;100.00;91843.00;4748854;30;20040;-81
2024/03/09 07:56:28;;;;;;;44.28;3.42;;;;;;;2.25;100.00;91839.91;4743773;30;20394;-83
2024/03/09 07:58:54;;;;;;;261.77;7.07;;;;;;;2.31;100.00;91842.50;4746559;30;20119;-81
2024/03/09 08:01:20;;;;;;;174.35;4.90;;;;;;;2.29;100.00;91843.50;4749435;30;20130;-82
2024/03/09 08:03:45;;;;;;;137.15;4.45;;;;;;;2.29;100.00;91833.19;4751317;30;20051;-81
2024/03/09 08:06:11;;;;;;;203.50;6.20;;;;;;;2.36;100.00;91837.34;4754924;30;20047;-81
2024/03/09 08:08:37;;;;;;;86.70;2.92;;;;;;;2.47;100.00;91841.53;4755520;30;20461;-82
2024/03/09 08:11:02;;;;;;;161.27;4.93;;;;;;;2.34;100.00;91847.16;4754397;30;20044;-82
2024/03/09 08:13:29;;;;;;;217.43;5.40;;;;;;;2.33;100.00;91845.59;4759007;30;20156;-83
2024/03/09 08:15:55;;;;;;;175.23;5.63;;;;;;;2.35;100.00;91848.72;4754185;30;20091;-81
2024/03/09 08:18:23;;;;;;;144.57;4.43;;;;;;;2.47;100.00;91847.47;4757329;30;20141;-81
2024/03/09 08:20:49;;;;;;;88.78;3.15;;;;;;;2.47;100.00;91849.28;4763984;30;20066;-78
2024/03/09 08:23:17;;;;;;;142.57;4.35;;;;;;;2.41;100.00;91856.25;4755167;30;20071;-79
2024/03/09 08:25:42;;;;;;;296.25;6.68;;;;;;;2.39;100.00;91854.94;4748555;30;20525;-81
2024/03/09 08:28:08;;;;;;;382.38;8.43;;;;;;;2.33;100.00;91855.94;4755064;30;20044;-81
2024/03/09 08:30:34;;;;;;;323.08;7.75;;;;;;;2.31;100.00;91842.50;4753336;30;20159;-82
2024/03/09 08:32:59;;;;;;;154.00;4.72;;;;;;;2.39;100.00;91847.19;4754083;30;20043;-80
2024/03/09 08:35:27;;;;;;;154.60;4.35;;;;;;;2.53;100.00;91845.69;4762351;30;20047;-81
2024/03/09 08:37:53;;;;;;;0.77;0.77;;;;;;;2.67;100.00;91844.19;4761166;30;20077;-81
2024/03/09 08:40:30;;;;;;;96.38;4.18;;;;;;;2.66;100.00;91850.41;4762967;30;20078;-81
2024/03/09 08:42:58;;;;;;;478.55;10.98;;;;;;;2.52;100.00;91854.47;4756599;30;20073;-81
2024/03/09 08:45:26;;;;;;;190.65;6.38;;;;;;;2.52;100.00;91862.22;4754908;30;20396;-80
2024/03/09 08:47:53;;;;;;;284.02;7.30;;;;;;;2.60;100.00;91861.75;4754342;30;20036;-81
2024/03/09 08:50:23;;;;;;;90.88;4.22;;;;;;;2.69;100.00;91862.81;4758097;30;20622;-80
2024/03/09 08:52:49;;;;;;;59.90;3.25;;;;;;;2.83;100.00;91862.34;4760114;30;20040;-81
2024/03/09 08:55:17;;;;;;;8.57;2.50;;;;;;;2.95;100.00;91868.09;4759663;30;20526;-81
2024/03/09 08:57:45;;;;;;;143.15;4.80;;;;;;;2.90;100.00;91874.03;4757481;30;20036;-80
2024/03/09 09:00:11;;;;;;;95.70;3.28;;;;;;;2.90;100.00;91871.44;4759640;30;20039;-81
2024/03/09 09:02:37;;;;;;;123.68;4.40;;;;;;;2.82;100.00;91878.91;4753209;30;20060;-80
2024/03/09 09:05:11;;;;;;;375.45;9.18;;;;;;;2.87;100.00;91881.50;4757659;30;20476;-81
2024/03/09 09:07:46;;;;;;;142.85;4.60;;;;;;;2.89;100.00;91889.78;4759518;30;20071;-81
2024/03/09 09:10:14;;;;;;;265.52;7.22;;;;;;;2.75;100.00;91883.50;4754371;30;20075;-81
2024/03/09 09:12:45;;;;;;;23.58;4.00;;;;;;;2.77;100.00;91891.78;4757921;30;20455;-81
2024/03/09 09:15:13;;;;;;;9.48;3.20;;;;;;;2.81;100.00;91883.28;4757156;30;20493;-81
2024/03/09 09:17:42;;;;;;;4.10;2.63;;;;;;;2.88;100.00;91888.22;4761599;30;20043;-80
2024/03/09 09:20:11;;;;;;;3.97;2.10;;;;;;;2.96;100.00;91887.72;4764665;30;20483;-80
2024/03/09 09:22:38;;;;;;;3.10;1.70;;;;;;;3.02;100.00;91894.47;4759981;30;20467;-81
2024/03/09 09:25:04;;;;;;;3.50;2.00;;;;;;;3.09;100.00;91895.00;4761270;30;20040;-80
2024/03/09 09:27:30;;;;;;;3.00;1.80;;;;;;;3.17;100.00;91896.31;4754108;30;20737;-81
2024/03/09 09:29:55;;;;;;;3.03;1.85;;;;;;;3.20;100.00;91887.25;4751656;30;20071;-80
2024/03/09 09:32:24;;;;;;;3.13;1.63;;;;;;;3.20;100.00;91884.69;4752403;30;20047;-81
2024/03/09 09:34:50;;;;;;;2.13;1.40;;;;;;;3.21;100.00;91879.25;4752446;30;20039;-81
2024/03/09 09:37:16;;;;;;;2.42;1.60;;;;;;;3.22;100.00;91883.41;4751191;30;20134;-81
2024/03/09 09:39:43;;;;;;;2.03;1.38;;;;;;;3.22;100.00;91886.00;4748441;30;20043;-81
2024/03/09 09:42:09;;;;;;;2.42;1.52;;;;;;;3.24;100.00;91890.91;4751925;30;20474;-80
2024/03/09 09:44:37;;;;;;;2.20;1.42;;;;;;;3.26;100.00;91874.09;4747578;30;20044;-81
2024/03/09 09:47:03;;;;;;;3.78;1.90;;;;;;;3.28;100.00;91876.44;4765787;30;20051;-80
2024/03/09 09:49:28;;;;;;;5.07;2.47;;;;;;;3.35;100.00;91884.72;4751203;30;20497;-81
2024/03/09 09:51:58;;;;;;;4.68;2.10;;;;;;;3.37;100.00;91882.66;4751272;30;20040;-80
2024/03/09 09:54:26;;;;;;;2.72;1.50;;;;;;;3.42;100.00;91867.13;4763822;30;20036;-81
2024/03/09 09:56:56;;;;;;;2.38;1.33;;;;;;;3.40;100.00;91858.88;4750805;30;20032;-81
2024/03/09 09:59:22;;;;;;;3.05;1.83;;;;;;;3.47;100.00;91859.41;4746983;30;20040;-82
2024/03/09 10:01:48;;;;;;;4.72;2.30;;;;;;;3.69;100.00;91863.53;4746051;30;20058;-81
2024/03/09 10:04:16;;;;;;;4.47;2.30;;;;;;;3.86;100.00;91863.28;4745033;30;20603;-81
2024/03/09 10:06:42;;;;;;;3.90;2.00;;;;;;;3.97;100.00;91865.59;4748361;30;20040;-81
2024/03/09 10:09:07;;;;;;;750.15;18.63;;;;;;;3.88;100.00;91867.16;4747468;30;20495;-81
2024/03/09 10:11:33;;;;;;;609.40;15.00;;;;;;;3.59;100.00;91869.50;4743775;30;20036;-80
2024/03/09 10:14:02;;;;;;;836.55;20.58;;;;;;;3.18;100.00;91866.06;4727932;30;20351;-81
2024/03/09 10:16:30;;;;;;;495.05;12.05;;;;;;;3.28;100.00;91876.44;4759639;30;20141;-81
2024/03/09 10:18:57;;;;;;;242.88;6.35;;;;;;;3.28;100.00;91879.78;4746293;30;20071;-80
2024/03/09 10:21:41;;;;;;;426.35;11.07;;;;;;;3.15;100.00;91874.34;4745252;30;20047;-80
2024/03/09 10:24:07;;;;;;;317.90;8.18;;;;;;;3.19;100.00;91883.91;4744165;30;20048;-81
2024/03/09 10:26:34;;;;;;;52.70;3.10;;;;;;;3.27;100.00;91886.00;4756136;30;20028;-80
2024/03/09 10:29:03;;;;;;;38.63;3.45;;;;;;;3.33;100.00;91892.75;4760357;30;20044;-80
2024/03/09 10:31:29;;;;;;;6.40;3.47;;;;;;;3.39;100.00;91893.53;4758583;30;20071;-80
2024/03/09 10:33:56;;;;;;;33.75;3.30;;;;;;;3.43;100.00;91894.56;4759972;30;20048;-79
2024/03/09 10:36:24;;;;;;;121.72;4.22;;;;;;;3.44;100.00;91890.16;4754878;30;20123;-80
2024/03/09 10:38:51;;;;;;;58.05;2.85;;;;;;;3.55;100.00;91889.91;4760602;30;20051;-81
2024/03/09 10:41:28;;;;;;;85.70;3.42;;;;;;;3.63;100.00;91887.88;4756699;30;20097;-80
2024/03/09 10:43:56;;;;;;;2.55;1.50;;;;;;;3.74;100.00;91889.44;4754831;30;20054;-80
2024/03/09 10:46:32;;;;;;;1.77;1.33;;;;;;;3.87;100.00;91888.94;4745900;30;21584;-80
2024/03/09 10:48:58;;;;;;;3.90;2.50;;;;;;;4.01;100.00;91888.38;4747097;30;20043;-80
2024/03/09 10:51:40;;;;;;;2.60;1.60;;;;;;;4.07;100.00;91879.59;4747179;30;20040;-80
2024/03/09 10:54:13;;;;;;;5.18;3.25;;;;;;;4.24;100.00;91887.84;4743268;30;20062;-80
2024/03/09 10:56:42;;;;;;;1.42;1.13;;;;;;;4.16;100.00;91880.59;4743794;30;20873;-80
2024/03/09 10:59:13;;;;;;;3.30;1.80;;;;;;;4.18;100.00;91884.47;4748192;30;20066;-81
2024/03/09 11:01:39;;;;;;;4.93;2.65;;;;;;;4.15;100.00;91885.00;4761670;30;20127;-81
2024/03/09 11:04:07;;;;;;;2.75;1.60;;;;;;;4.23;100.00;91881.09;4751387;30;20451;-81
2024/03/09 11:06:34;;;;;;;3.22;1.80;;;;;;;4.24;100.00;91874.91;4740212;30;20529;-81
2024/03/09 11:09:01;;;;;;;7.28;4.22;;;;;;;4.27;100.00;91884.72;4747181;30;20042;-80
2024/03/09 11:11:31;;;;;;;2.83;1.80;;;;;;;4.11;100.00;91883.22;4743120;30;20202;-81
2024/03/09 11:14:02;;;;;;;2.10;1.27;;;;;;;4.09;100.00;91880.09;4748650;30;20460;-81
2024/03/09 11:16:29;;;;;;;3.42;1.80;;;;;;;4.24;100.00;91876.72;4744101;30;20105;-80
2024/03/09 11:18:55;;;;;;;1.08;0.98;;;;;;;4.28;100.00;91882.91;4743566;30;20059;-80
2024/03/09 11:21:26;;;;;;;1.73;1.30;;;;;;;4.27;100.00;91887.31;4748270;30;20048;-79
2024/03/09 11:23:53;;;;;;;2.75;1.60;;;;;;;4.00;100.00;91892.03;4754718;30;20078;-79
2024/03/09 11:26:23;;;;;;;1.60;1.33;;;;;;;3.93;100.00;91880.09;4755361;30;20055;-78
2024/03/09 11:28:57;;;;;;;3.60;1.80;;;;;;;4.11;100.00;91886.56;4749593;30;20037;-78